sensor_id;sensor_type;location;lat;lon;timestamp;P1;durP1;ratioP1;P2;durP2;ratioP2
55993;SDS011;67425;52.126;20.638;2023-05-10T00:01:00;9.77;;;4.72;;
55993;SDS011;67425;52.126;20.638;2023-05-10T00:03:26;21.17;;;5.35;;
55993;SDS011;67425;52.126;20.638;2023-05-10T00:05:51;10.20;;;5.50;;
55993;SDS011;67425;52.126;20.638;2023-05-10T00:08:17;13.57;;;5.15;;
55993;SDS011;67425;52.126;20.638;2023-05-10T00:10:42;8.95;;;5.07;;
55993;SDS011;67425;52.126;20.638;2023-05-10T00:13:08;14.93;;;4.70;;
55993;SDS011;67425;52.126;20.638;2023-05-10T00:15:33;10.95;;;4.97;;
55993;SDS011;67425;52.126;20.638;2023-05-10T00:17:59;15.23;;;4.55;;
55993;SDS011;67425;52.126;20.638;2023-05-10T00:20:25;9.88;;;5.57;;
55993;SDS011;67425;52.126;20.638;2023-05-10T00:22:50;15.88;;;5.30;;
55993;SDS011;67425;52.126;20.638;2023-05-10T00:25:16;12.38;;;5.72;;
55993;SDS011;67425;52.126;20.638;2023-05-10T00:27:41;8.82;;;4.68;;
55993;SDS011;67425;52.126;20.638;2023-05-10T00:30:07;8.80;;;5.28;;
55993;SDS011;67425;52.126;20.638;2023-05-10T00:32:32;18.77;;;5.55;;
55993;SDS011;67425;52.126;20.638;2023-05-10T00:34:58;17.52;;;5.50;;
55993;SDS011;67425;52.126;20.638;2023-05-10T00:37:23;8.23;;;5.50;;
55993;SDS011;67425;52.126;20.638;2023-05-10T00:39:48;7.28;;;5.10;;
55993;SDS011;67425;52.126;20.638;2023-05-10T00:42:14;7.35;;;5.20;;
55993;SDS011;67425;52.126;20.638;2023-05-10T00:44:39;12.82;;;6.03;;
55993;SDS011;67425;52.126;20.638;2023-05-10T00:47:05;10.50;;;5.97;;
55993;SDS011;67425;52.126;20.638;2023-05-10T00:49:30;14.88;;;5.28;;
55993;SDS011;67425;52.126;20.638;2023-05-10T00:51:56;8.13;;;4.82;;
55993;SDS011;67425;52.126;20.638;2023-05-10T00:54:22;10.38;;;5.90;;
55993;SDS011;67425;52.126;20.638;2023-05-10T00:56:47;9.82;;;5.32;;
55993;SDS011;67425;52.126;20.638;2023-05-10T00:59:17;5.70;;;4.90;;
55993;SDS011;67425;52.126;20.638;2023-05-10T01:01:44;17.15;;;5.63;;
55993;SDS011;67425;52.126;20.638;2023-05-10T01:04:10;12.00;;;5.70;;
55993;SDS011;67425;52.126;20.638;2023-05-10T01:06:38;8.98;;;5.40;;
55993;SDS011;67425;52.126;20.638;2023-05-10T01:09:03;13.00;;;5.47;;
55993;SDS011;67425;52.126;20.638;2023-05-10T01:11:29;11.32;;;5.95;;
55993;SDS011;67425;52.126;20.638;2023-05-10T01:13:55;10.05;;;5.32;;
55993;SDS011;67425;52.126;20.638;2023-05-10T01:16:22;12.65;;;5.70;;
55993;SDS011;67425;52.126;20.638;2023-05-10T01:18:48;8.07;;;5.65;;
55993;SDS011;67425;52.126;20.638;2023-05-10T01:21:27;13.02;;;5.50;;
55993;SDS011;67425;52.126;20.638;2023-05-10T01:24:10;7.60;;;5.22;;
55993;SDS011;67425;52.126;20.638;2023-05-10T01:37:42;10.45;;;5.53;;
55993;SDS011;67425;52.126;20.638;2023-05-10T01:43:26;9.82;;;5.32;;
55993;SDS011;67425;52.126;20.638;2023-05-10T01:46:01;12.20;;;5.57;;
55993;SDS011;67425;52.126;20.638;2023-05-10T01:48:35;15.07;;;6.20;;
55993;SDS011;67425;52.126;20.638;2023-05-10T01:51:05;11.18;;;6.35;;
55993;SDS011;67425;52.126;20.638;2023-05-10T01:53:31;8.93;;;5.72;;
55993;SDS011;67425;52.126;20.638;2023-05-10T01:56:00;9.70;;;5.82;;
55993;SDS011;67425;52.126;20.638;2023-05-10T01:58:27;10.23;;;6.05;;
55993;SDS011;67425;52.126;20.638;2023-05-10T02:00:55;10.43;;;5.72;;
55993;SDS011;67425;52.126;20.638;2023-05-10T02:03:23;8.98;;;6.55;;
55993;SDS011;67425;52.126;20.638;2023-05-10T02:05:51;9.95;;;5.95;;
55993;SDS011;67425;52.126;20.638;2023-05-10T02:08:18;11.80;;;5.65;;
55993;SDS011;67425;52.126;20.638;2023-05-10T02:10:45;11.70;;;5.38;;
55993;SDS011;67425;52.126;20.638;2023-05-10T02:13:14;7.88;;;5.72;;
55993;SDS011;67425;52.126;20.638;2023-05-10T02:15:41;13.20;;;5.93;;
55993;SDS011;67425;52.126;20.638;2023-05-10T02:18:07;13.18;;;5.22;;
55993;SDS011;67425;52.126;20.638;2023-05-10T02:20:35;7.35;;;5.07;;
55993;SDS011;67425;52.126;20.638;2023-05-10T02:23:02;11.13;;;5.28;;
55993;SDS011;67425;52.126;20.638;2023-05-10T02:25:28;8.35;;;5.00;;
55993;SDS011;67425;52.126;20.638;2023-05-10T02:27:56;12.27;;;6.00;;
55993;SDS011;67425;52.126;20.638;2023-05-10T02:30:24;8.65;;;5.43;;
55993;SDS011;67425;52.126;20.638;2023-05-10T02:32:51;18.80;;;5.75;;
55993;SDS011;67425;52.126;20.638;2023-05-10T02:35:17;11.52;;;6.80;;
55993;SDS011;67425;52.126;20.638;2023-05-10T02:37:43;12.25;;;6.03;;
55993;SDS011;67425;52.126;20.638;2023-05-10T02:40:10;9.68;;;5.78;;
55993;SDS011;67425;52.126;20.638;2023-05-10T02:42:37;17.33;;;5.60;;
55993;SDS011;67425;52.126;20.638;2023-05-10T02:45:07;14.43;;;5.47;;
55993;SDS011;67425;52.126;20.638;2023-05-10T02:47:36;15.02;;;5.60;;
55993;SDS011;67425;52.126;20.638;2023-05-10T02:50:02;8.05;;;5.45;;
55993;SDS011;67425;52.126;20.638;2023-05-10T02:52:29;18.20;;;6.03;;
55993;SDS011;67425;52.126;20.638;2023-05-10T02:57:33;10.50;;;5.55;;
55993;SDS011;67425;52.126;20.638;2023-05-10T03:00:00;8.02;;;5.60;;
55993;SDS011;67425;52.126;20.638;2023-05-10T03:02:26;9.23;;;4.88;;
55993;SDS011;67425;52.126;20.638;2023-05-10T03:04:52;8.25;;;6.05;;
55993;SDS011;67425;52.126;20.638;2023-05-10T03:07:17;15.90;;;6.03;;
55993;SDS011;67425;52.126;20.638;2023-05-10T03:09:46;12.15;;;6.05;;
55993;SDS011;67425;52.126;20.638;2023-05-10T03:12:37;11.85;;;5.63;;
55993;SDS011;67425;52.126;20.638;2023-05-10T03:23:12;13.15;;;6.13;;
55993;SDS011;67425;52.126;20.638;2023-05-10T03:25:46;12.73;;;5.88;;
55993;SDS011;67425;52.126;20.638;2023-05-10T03:28:14;9.98;;;5.72;;
55993;SDS011;67425;52.126;20.638;2023-05-10T03:30:41;25.63;;;6.07;;
55993;SDS011;67425;52.126;20.638;2023-05-10T03:33:07;19.90;;;6.32;;
55993;SDS011;67425;52.126;20.638;2023-05-10T03:35:33;12.20;;;6.18;;
55993;SDS011;67425;52.126;20.638;2023-05-10T03:37:58;10.35;;;5.63;;
55993;SDS011;67425;52.126;20.638;2023-05-10T03:40:24;7.82;;;5.30;;
55993;SDS011;67425;52.126;20.638;2023-05-10T03:42:50;10.02;;;5.65;;
55993;SDS011;67425;52.126;20.638;2023-05-10T03:45:16;10.85;;;5.90;;
55993;SDS011;67425;52.126;20.638;2023-05-10T03:47:41;12.80;;;5.93;;
55993;SDS011;67425;52.126;20.638;2023-05-10T03:50:07;11.10;;;6.15;;
55993;SDS011;67425;52.126;20.638;2023-05-10T03:52:32;14.35;;;5.97;;
55993;SDS011;67425;52.126;20.638;2023-05-10T03:54:58;14.50;;;6.10;;
55993;SDS011;67425;52.126;20.638;2023-05-10T03:57:23;14.07;;;5.82;;
55993;SDS011;67425;52.126;20.638;2023-05-10T03:59:48;12.07;;;6.28;;
55993;SDS011;67425;52.126;20.638;2023-05-10T04:02:14;16.83;;;6.75;;
55993;SDS011;67425;52.126;20.638;2023-05-10T04:04:39;10.27;;;5.75;;
55993;SDS011;67425;52.126;20.638;2023-05-10T04:07:04;12.77;;;5.75;;
55993;SDS011;67425;52.126;20.638;2023-05-10T04:09:30;12.68;;;5.22;;
55993;SDS011;67425;52.126;20.638;2023-05-10T04:11:56;6.57;;;5.18;;
55993;SDS011;67425;52.126;20.638;2023-05-10T04:14:21;11.82;;;6.38;;
55993;SDS011;67425;52.126;20.638;2023-05-10T04:16:47;10.85;;;6.18;;
55993;SDS011;67425;52.126;20.638;2023-05-10T04:19:12;12.63;;;5.50;;
55993;SDS011;67425;52.126;20.638;2023-05-10T04:21:37;11.05;;;5.38;;
55993;SDS011;67425;52.126;20.638;2023-05-10T04:24:03;9.35;;;6.22;;
55993;SDS011;67425;52.126;20.638;2023-05-10T04:26:28;17.95;;;5.93;;
55993;SDS011;67425;52.126;20.638;2023-05-10T04:28:54;10.07;;;5.38;;
55993;SDS011;67425;52.126;20.638;2023-05-10T04:31:19;10.40;;;5.25;;
55993;SDS011;67425;52.126;20.638;2023-05-10T04:33:44;8.50;;;4.53;;
55993;SDS011;67425;52.126;20.638;2023-05-10T04:36:10;13.23;;;5.95;;
55993;SDS011;67425;52.126;20.638;2023-05-10T04:38:35;17.73;;;5.72;;
55993;SDS011;67425;52.126;20.638;2023-05-10T04:41:07;11.02;;;5.10;;
55993;SDS011;67425;52.126;20.638;2023-05-10T04:43:34;8.77;;;4.95;;
55993;SDS011;67425;52.126;20.638;2023-05-10T04:46:00;12.13;;;5.35;;
55993;SDS011;67425;52.126;20.638;2023-05-10T04:48:25;12.50;;;5.63;;
55993;SDS011;67425;52.126;20.638;2023-05-10T04:50:51;9.60;;;5.63;;
55993;SDS011;67425;52.126;20.638;2023-05-10T04:53:16;16.92;;;5.15;;
55993;SDS011;67425;52.126;20.638;2023-05-10T04:55:41;8.23;;;5.07;;
55993;SDS011;67425;52.126;20.638;2023-05-10T04:58:07;9.45;;;4.97;;
55993;SDS011;67425;52.126;20.638;2023-05-10T05:00:32;15.73;;;4.82;;
55993;SDS011;67425;52.126;20.638;2023-05-10T05:02:58;9.63;;;5.00;;
55993;SDS011;67425;52.126;20.638;2023-05-10T05:05:23;9.10;;;4.95;;
55993;SDS011;67425;52.126;20.638;2023-05-10T05:07:49;14.52;;;5.75;;
55993;SDS011;67425;52.126;20.638;2023-05-10T05:10:15;14.13;;;5.30;;
55993;SDS011;67425;52.126;20.638;2023-05-10T05:12:40;6.50;;;3.95;;
55993;SDS011;67425;52.126;20.638;2023-05-10T05:15:06;6.22;;;4.18;;
55993;SDS011;67425;52.126;20.638;2023-05-10T05:17:33;8.32;;;4.60;;
55993;SDS011;67425;52.126;20.638;2023-05-10T05:19:58;6.28;;;4.43;;
55993;SDS011;67425;52.126;20.638;2023-05-10T05:22:23;7.57;;;4.78;;
55993;SDS011;67425;52.126;20.638;2023-05-10T05:24:52;10.90;;;5.38;;
55993;SDS011;67425;52.126;20.638;2023-05-10T05:27:21;9.10;;;5.25;;
55993;SDS011;67425;52.126;20.638;2023-05-10T05:29:49;11.15;;;4.65;;
55993;SDS011;67425;52.126;20.638;2023-05-10T05:32:18;18.95;;;4.97;;
55993;SDS011;67425;52.126;20.638;2023-05-10T05:34:46;9.30;;;4.82;;
55993;SDS011;67425;52.126;20.638;2023-05-10T05:37:15;5.57;;;4.30;;
55993;SDS011;67425;52.126;20.638;2023-05-10T05:39:41;15.55;;;4.85;;
55993;SDS011;67425;52.126;20.638;2023-05-10T05:42:07;14.75;;;5.03;;
55993;SDS011;67425;52.126;20.638;2023-05-10T05:44:34;8.13;;;4.35;;
55993;SDS011;67425;52.126;20.638;2023-05-10T05:46:59;6.70;;;4.07;;
55993;SDS011;67425;52.126;20.638;2023-05-10T05:49:24;12.43;;;4.40;;
55993;SDS011;67425;52.126;20.638;2023-05-10T05:51:50;8.40;;;4.20;;
55993;SDS011;67425;52.126;20.638;2023-05-10T05:54:15;22.67;;;4.85;;
55993;SDS011;67425;52.126;20.638;2023-05-10T05:56:40;14.07;;;5.07;;
55993;SDS011;67425;52.126;20.638;2023-05-10T05:59:06;7.53;;;3.95;;
55993;SDS011;67425;52.126;20.638;2023-05-10T06:01:31;7.38;;;4.05;;
55993;SDS011;67425;52.126;20.638;2023-05-10T06:03:56;11.55;;;4.50;;
55993;SDS011;67425;52.126;20.638;2023-05-10T06:06:22;6.35;;;3.83;;
55993;SDS011;67425;52.126;20.638;2023-05-10T06:08:47;4.57;;;3.72;;
55993;SDS011;67425;52.126;20.638;2023-05-10T06:11:12;6.15;;;3.45;;
55993;SDS011;67425;52.126;20.638;2023-05-10T06:13:37;5.28;;;4.00;;
55993;SDS011;67425;52.126;20.638;2023-05-10T06:16:03;9.60;;;3.90;;
55993;SDS011;67425;52.126;20.638;2023-05-10T06:18:28;13.60;;;3.33;;
55993;SDS011;67425;52.126;20.638;2023-05-10T06:20:54;13.48;;;4.05;;
55993;SDS011;67425;52.126;20.638;2023-05-10T06:23:19;12.27;;;3.70;;
55993;SDS011;67425;52.126;20.638;2023-05-10T06:25:44;10.80;;;3.40;;
55993;SDS011;67425;52.126;20.638;2023-05-10T06:28:10;11.65;;;4.18;;
55993;SDS011;67425;52.126;20.638;2023-05-10T06:30:35;10.20;;;4.00;;
55993;SDS011;67425;52.126;20.638;2023-05-10T06:33:01;7.22;;;3.50;;
55993;SDS011;67425;52.126;20.638;2023-05-10T06:35:27;5.75;;;3.35;;
55993;SDS011;67425;52.126;20.638;2023-05-10T06:37:53;4.97;;;2.97;;
55993;SDS011;67425;52.126;20.638;2023-05-10T06:40:18;4.30;;;3.47;;
55993;SDS011;67425;52.126;20.638;2023-05-10T06:42:44;12.27;;;3.60;;
55993;SDS011;67425;52.126;20.638;2023-05-10T06:45:11;5.95;;;3.35;;
55993;SDS011;67425;52.126;20.638;2023-05-10T06:47:36;9.45;;;4.03;;
55993;SDS011;67425;52.126;20.638;2023-05-10T06:50:02;8.95;;;2.65;;
55993;SDS011;67425;52.126;20.638;2023-05-10T06:52:28;3.22;;;2.80;;
55993;SDS011;67425;52.126;20.638;2023-05-10T06:54:53;4.43;;;2.72;;
55993;SDS011;67425;52.126;20.638;2023-05-10T06:57:18;4.47;;;2.60;;
55993;SDS011;67425;52.126;20.638;2023-05-10T06:59:44;6.65;;;2.67;;
55993;SDS011;67425;52.126;20.638;2023-05-10T07:02:09;6.15;;;2.50;;
55993;SDS011;67425;52.126;20.638;2023-05-10T07:04:35;9.90;;;2.58;;
55993;SDS011;67425;52.126;20.638;2023-05-10T07:07:00;3.08;;;2.80;;
55993;SDS011;67425;52.126;20.638;2023-05-10T07:09:25;7.40;;;2.47;;
55993;SDS011;67425;52.126;20.638;2023-05-10T07:11:51;14.40;;;2.65;;
55993;SDS011;67425;52.126;20.638;2023-05-10T07:14:16;4.03;;;2.50;;
55993;SDS011;67425;52.126;20.638;2023-05-10T07:16:42;8.02;;;2.28;;
55993;SDS011;67425;52.126;20.638;2023-05-10T07:19:07;12.43;;;2.40;;
55993;SDS011;67425;52.126;20.638;2023-05-10T07:21:32;5.63;;;1.77;;
55993;SDS011;67425;52.126;20.638;2023-05-10T07:23:58;8.85;;;2.10;;
55993;SDS011;67425;52.126;20.638;2023-05-10T07:26:24;3.17;;;2.00;;
55993;SDS011;67425;52.126;20.638;2023-05-10T07:28:50;5.78;;;1.77;;
55993;SDS011;67425;52.126;20.638;2023-05-10T07:31:15;4.22;;;1.88;;
55993;SDS011;67425;52.126;20.638;2023-05-10T07:33:40;5.22;;;1.80;;
55993;SDS011;67425;52.126;20.638;2023-05-10T07:36:06;7.15;;;1.60;;
55993;SDS011;67425;52.126;20.638;2023-05-10T07:38:31;2.78;;;2.15;;
55993;SDS011;67425;52.126;20.638;2023-05-10T07:40:57;6.97;;;1.85;;
55993;SDS011;67425;52.126;20.638;2023-05-10T07:43:22;3.42;;;1.95;;
55993;SDS011;67425;52.126;20.638;2023-05-10T07:45:47;1.75;;;1.65;;
55993;SDS011;67425;52.126;20.638;2023-05-10T07:48:13;2.70;;;1.83;;
55993;SDS011;67425;52.126;20.638;2023-05-10T07:50:38;12.18;;;1.85;;
55993;SDS011;67425;52.126;20.638;2023-05-10T07:53:04;4.53;;;1.90;;
55993;SDS011;67425;52.126;20.638;2023-05-10T07:55:29;6.88;;;2.05;;
55993;SDS011;67425;52.126;20.638;2023-05-10T07:57:54;3.53;;;2.28;;
55993;SDS011;67425;52.126;20.638;2023-05-10T08:00:20;2.17;;;1.73;;
55993;SDS011;67425;52.126;20.638;2023-05-10T08:02:45;1.88;;;1.30;;
55993;SDS011;67425;52.126;20.638;2023-05-10T08:05:12;7.97;;;1.92;;
55993;SDS011;67425;52.126;20.638;2023-05-10T08:07:38;3.40;;;1.80;;
55993;SDS011;67425;52.126;20.638;2023-05-10T08:10:03;5.13;;;2.30;;
55993;SDS011;67425;52.126;20.638;2023-05-10T08:12:29;2.10;;;1.90;;
55993;SDS011;67425;52.126;20.638;2023-05-10T08:14:55;6.10;;;1.88;;
55993;SDS011;67425;52.126;20.638;2023-05-10T08:17:20;5.75;;;1.67;;
55993;SDS011;67425;52.126;20.638;2023-05-10T08:19:46;5.55;;;1.65;;
55993;SDS011;67425;52.126;20.638;2023-05-10T08:22:11;3.33;;;1.83;;
55993;SDS011;67425;52.126;20.638;2023-05-10T08:24:37;3.92;;;1.80;;
55993;SDS011;67425;52.126;20.638;2023-05-10T08:27:04;4.00;;;1.50;;
55993;SDS011;67425;52.126;20.638;2023-05-10T08:29:30;5.57;;;2.08;;
55993;SDS011;67425;52.126;20.638;2023-05-10T08:31:55;2.90;;;1.98;;
55993;SDS011;67425;52.126;20.638;2023-05-10T08:34:21;8.60;;;1.50;;
55993;SDS011;67425;52.126;20.638;2023-05-10T08:36:46;11.30;;;1.95;;
55993;SDS011;67425;52.126;20.638;2023-05-10T08:39:11;4.57;;;1.60;;
55993;SDS011;67425;52.126;20.638;2023-05-10T08:41:37;3.78;;;1.60;;
55993;SDS011;67425;52.126;20.638;2023-05-10T08:44:04;1.45;;;1.35;;
55993;SDS011;67425;52.126;20.638;2023-05-10T08:46:33;10.98;;;1.92;;
55993;SDS011;67425;52.126;20.638;2023-05-10T08:49:03;6.03;;;1.55;;
55993;SDS011;67425;52.126;20.638;2023-05-10T08:51:29;1.77;;;1.60;;
55993;SDS011;67425;52.126;20.638;2023-05-10T08:54:00;4.47;;;1.75;;
55993;SDS011;67425;52.126;20.638;2023-05-10T08:56:26;12.68;;;1.77;;
55993;SDS011;67425;52.126;20.638;2023-05-10T08:58:52;2.30;;;1.77;;
55993;SDS011;67425;52.126;20.638;2023-05-10T09:01:18;2.92;;;1.60;;
55993;SDS011;67425;52.126;20.638;2023-05-10T09:03:45;2.22;;;1.73;;
55993;SDS011;67425;52.126;20.638;2023-05-10T09:06:11;1.55;;;1.30;;
55993;SDS011;67425;52.126;20.638;2023-05-10T09:08:38;5.30;;;1.60;;
55993;SDS011;67425;52.126;20.638;2023-05-10T09:11:05;2.08;;;1.50;;
55993;SDS011;67425;52.126;20.638;2023-05-10T09:13:30;9.32;;;2.30;;
55993;SDS011;67425;52.126;20.638;2023-05-10T09:15:56;1.52;;;1.35;;
55993;SDS011;67425;52.126;20.638;2023-05-10T09:18:22;6.85;;;2.45;;
55993;SDS011;67425;52.126;20.638;2023-05-10T09:20:48;4.57;;;1.85;;
55993;SDS011;67425;52.126;20.638;2023-05-10T09:23:14;5.40;;;2.08;;
55993;SDS011;67425;52.126;20.638;2023-05-10T09:25:40;5.88;;;1.77;;
55993;SDS011;67425;52.126;20.638;2023-05-10T09:28:07;9.23;;;1.88;;
55993;SDS011;67425;52.126;20.638;2023-05-10T09:30:33;1.80;;;1.70;;
55993;SDS011;67425;52.126;20.638;2023-05-10T09:32:59;5.47;;;1.90;;
55993;SDS011;67425;52.126;20.638;2023-05-10T09:35:26;5.32;;;1.77;;
55993;SDS011;67425;52.126;20.638;2023-05-10T09:37:54;3.08;;;1.90;;
55993;SDS011;67425;52.126;20.638;2023-05-10T09:40:22;1.60;;;1.30;;
55993;SDS011;67425;52.126;20.638;2023-05-10T09:45:17;4.00;;;1.40;;
55993;SDS011;67425;52.126;20.638;2023-05-10T09:47:42;2.88;;;2.05;;
55993;SDS011;67425;52.126;20.638;2023-05-10T09:50:09;2.40;;;1.80;;
55993;SDS011;67425;52.126;20.638;2023-05-10T09:55:21;5.63;;;1.83;;
55993;SDS011;67425;52.126;20.638;2023-05-10T09:57:48;5.07;;;1.60;;
55993;SDS011;67425;52.126;20.638;2023-05-10T10:00:18;2.00;;;1.55;;
55993;SDS011;67425;52.126;20.638;2023-05-10T10:02:48;3.55;;;1.60;;
55993;SDS011;67425;52.126;20.638;2023-05-10T10:05:19;2.90;;;1.77;;
55993;SDS011;67425;52.126;20.638;2023-05-10T10:07:44;6.38;;;1.65;;
55993;SDS011;67425;52.126;20.638;2023-05-10T10:10:09;5.03;;;1.80;;
55993;SDS011;67425;52.126;20.638;2023-05-10T10:12:37;7.53;;;1.50;;
55993;SDS011;67425;52.126;20.638;2023-05-10T10:15:04;3.75;;;1.52;;
55993;SDS011;67425;52.126;20.638;2023-05-10T10:17:30;9.00;;;1.60;;
55993;SDS011;67425;52.126;20.638;2023-05-10T10:19:57;4.63;;;1.85;;
55993;SDS011;67425;52.126;20.638;2023-05-10T10:22:22;9.07;;;1.35;;
55993;SDS011;67425;52.126;20.638;2023-05-10T10:24:47;15.55;;;2.15;;
55993;SDS011;67425;52.126;20.638;2023-05-10T10:29:59;6.30;;;2.03;;
55993;SDS011;67425;52.126;20.638;2023-05-10T10:32:35;4.03;;;1.90;;
55993;SDS011;67425;52.126;20.638;2023-05-10T10:35:03;2.05;;;1.52;;
55993;SDS011;67425;52.126;20.638;2023-05-10T10:37:44;3.40;;;1.60;;
55993;SDS011;67425;52.126;20.638;2023-05-10T10:40:27;2.90;;;1.45;;
55993;SDS011;67425;52.126;20.638;2023-05-10T10:42:57;5.53;;;1.60;;
55993;SDS011;67425;52.126;20.638;2023-05-10T10:45:23;3.80;;;1.45;;
55993;SDS011;67425;52.126;20.638;2023-05-10T10:50:57;11.60;;;1.65;;
55993;SDS011;67425;52.126;20.638;2023-05-10T10:53:28;12.88;;;2.00;;
55993;SDS011;67425;52.126;20.638;2023-05-10T10:56:07;8.48;;;1.85;;
55993;SDS011;67425;52.126;20.638;2023-05-10T10:58:34;4.97;;;1.73;;
55993;SDS011;67425;52.126;20.638;2023-05-10T11:02:01;1.52;;;1.23;;
55993;SDS011;67425;52.126;20.638;2023-05-10T11:06:28;2.63;;;1.60;;
55993;SDS011;67425;52.126;20.638;2023-05-10T11:08:56;1.95;;;1.70;;
55993;SDS011;67425;52.126;20.638;2023-05-10T11:11:22;1.40;;;1.25;;
55993;SDS011;67425;52.126;20.638;2023-05-10T11:13:47;2.88;;;1.52;;
55993;SDS011;67425;52.126;20.638;2023-05-10T11:18:41;6.43;;;2.00;;
55993;SDS011;67425;52.126;20.638;2023-05-10T11:21:24;2.92;;;1.50;;
55993;SDS011;67425;52.126;20.638;2023-05-10T11:23:51;2.50;;;1.52;;
55993;SDS011;67425;52.126;20.638;2023-05-10T11:26:23;1.70;;;1.45;;
55993;SDS011;67425;52.126;20.638;2023-05-10T11:28:51;12.07;;;1.73;;
55993;SDS011;67425;52.126;20.638;2023-05-10T11:33:52;10.43;;;1.92;;
55993;SDS011;67425;52.126;20.638;2023-05-10T11:36:20;5.38;;;1.73;;
55993;SDS011;67425;52.126;20.638;2023-05-10T11:38:48;3.72;;;1.83;;
55993;SDS011;67425;52.126;20.638;2023-05-10T11:41:14;6.78;;;1.60;;
55993;SDS011;67425;52.126;20.638;2023-05-10T11:43:41;1.88;;;1.60;;
55993;SDS011;67425;52.126;20.638;2023-05-10T11:46:11;3.25;;;1.40;;
55993;SDS011;67425;52.126;20.638;2023-05-10T11:48:41;4.40;;;1.50;;
55993;SDS011;67425;52.126;20.638;2023-05-10T11:51:10;8.25;;;1.70;;
55993;SDS011;67425;52.126;20.638;2023-05-10T11:53:36;11.43;;;1.98;;
55993;SDS011;67425;52.126;20.638;2023-05-10T11:56:06;5.65;;;2.25;;
55993;SDS011;67425;52.126;20.638;2023-05-10T11:58:33;5.00;;;1.70;;
55993;SDS011;67425;52.126;20.638;2023-05-10T12:00:59;11.30;;;2.47;;
55993;SDS011;67425;52.126;20.638;2023-05-10T12:03:25;5.13;;;1.23;;
55993;SDS011;67425;52.126;20.638;2023-05-10T12:05:51;10.13;;;1.70;;
55993;SDS011;67425;52.126;20.638;2023-05-10T12:08:20;1.65;;;1.55;;
55993;SDS011;67425;52.126;20.638;2023-05-10T12:10:47;3.70;;;1.70;;
55993;SDS011;67425;52.126;20.638;2023-05-10T12:13:13;10.43;;;1.52;;
55993;SDS011;67425;52.126;20.638;2023-05-10T12:15:40;3.35;;;1.75;;
55993;SDS011;67425;52.126;20.638;2023-05-10T12:18:07;10.15;;;1.60;;
55993;SDS011;67425;52.126;20.638;2023-05-10T12:20:35;3.30;;;1.40;;
55993;SDS011;67425;52.126;20.638;2023-05-10T12:23:01;2.83;;;2.38;;
55993;SDS011;67425;52.126;20.638;2023-05-10T12:25:34;7.40;;;1.60;;
55993;SDS011;67425;52.126;20.638;2023-05-10T12:28:04;6.57;;;1.63;;
55993;SDS011;67425;52.126;20.638;2023-05-10T12:30:32;9.27;;;2.10;;
55993;SDS011;67425;52.126;20.638;2023-05-10T12:33:06;5.40;;;1.42;;
55993;SDS011;67425;52.126;20.638;2023-05-10T12:35:33;1.55;;;1.45;;
55993;SDS011;67425;52.126;20.638;2023-05-10T12:41:00;2.97;;;1.52;;
55993;SDS011;67425;52.126;20.638;2023-05-10T12:43:26;2.67;;;1.33;;
55993;SDS011;67425;52.126;20.638;2023-05-10T12:45:52;2.70;;;1.45;;
55993;SDS011;67425;52.126;20.638;2023-05-10T12:48:18;7.70;;;1.45;;
55993;SDS011;67425;52.126;20.638;2023-05-10T12:50:43;11.60;;;1.83;;
55993;SDS011;67425;52.126;20.638;2023-05-10T12:53:09;5.10;;;1.73;;
55993;SDS011;67425;52.126;20.638;2023-05-10T12:55:34;2.75;;;1.38;;
55993;SDS011;67425;52.126;20.638;2023-05-10T12:57:59;2.08;;;1.23;;
55993;SDS011;67425;52.126;20.638;2023-05-10T13:00:25;9.40;;;1.77;;
55993;SDS011;67425;52.126;20.638;2023-05-10T13:02:50;4.65;;;2.25;;
55993;SDS011;67425;52.126;20.638;2023-05-10T13:05:15;6.57;;;2.17;;
55993;SDS011;67425;52.126;20.638;2023-05-10T13:07:41;2.47;;;1.70;;
55993;SDS011;67425;52.126;20.638;2023-05-10T13:10:08;4.55;;;1.98;;
55993;SDS011;67425;52.126;20.638;2023-05-10T13:12:34;3.75;;;1.27;;
55993;SDS011;67425;52.126;20.638;2023-05-10T13:14:59;3.10;;;1.65;;
55993;SDS011;67425;52.126;20.638;2023-05-10T13:17:25;6.25;;;1.67;;
55993;SDS011;67425;52.126;20.638;2023-05-10T13:19:50;7.97;;;1.60;;
55993;SDS011;67425;52.126;20.638;2023-05-10T13:22:15;1.80;;;1.65;;
55993;SDS011;67425;52.126;20.638;2023-05-10T13:24:41;9.23;;;3.40;;
55993;SDS011;67425;52.126;20.638;2023-05-10T13:27:06;8.98;;;1.70;;
55993;SDS011;67425;52.126;20.638;2023-05-10T13:29:31;2.15;;;1.58;;
55993;SDS011;67425;52.126;20.638;2023-05-10T13:31:57;8.38;;;1.95;;
55993;SDS011;67425;52.126;20.638;2023-05-10T13:34:22;4.90;;;1.48;;
55993;SDS011;67425;52.126;20.638;2023-05-10T13:36:49;4.70;;;1.92;;
55993;SDS011;67425;52.126;20.638;2023-05-10T13:39:15;3.90;;;1.63;;
55993;SDS011;67425;52.126;20.638;2023-05-10T13:41:41;9.75;;;1.70;;
55993;SDS011;67425;52.126;20.638;2023-05-10T13:44:06;2.35;;;1.95;;
55993;SDS011;67425;52.126;20.638;2023-05-10T13:46:32;4.18;;;1.50;;
55993;SDS011;67425;52.126;20.638;2023-05-10T13:48:57;8.63;;;1.70;;
55993;SDS011;67425;52.126;20.638;2023-05-10T13:51:22;8.52;;;1.65;;
55993;SDS011;67425;52.126;20.638;2023-05-10T13:53:48;1.98;;;1.55;;
55993;SDS011;67425;52.126;20.638;2023-05-10T13:56:13;3.47;;;1.30;;
55993;SDS011;67425;52.126;20.638;2023-05-10T13:58:39;3.22;;;2.15;;
55993;SDS011;67425;52.126;20.638;2023-05-10T14:01:04;2.88;;;1.77;;
55993;SDS011;67425;52.126;20.638;2023-05-10T14:03:30;9.57;;;1.85;;
55993;SDS011;67425;52.126;20.638;2023-05-10T14:05:55;2.08;;;1.75;;
55993;SDS011;67425;52.126;20.638;2023-05-10T14:08:21;2.33;;;1.88;;
55993;SDS011;67425;52.126;20.638;2023-05-10T14:10:46;2.28;;;1.70;;
55993;SDS011;67425;52.126;20.638;2023-05-10T14:13:11;4.30;;;2.03;;
55993;SDS011;67425;52.126;20.638;2023-05-10T14:15:37;14.50;;;1.92;;
55993;SDS011;67425;52.126;20.638;2023-05-10T14:18:02;2.47;;;1.50;;
55993;SDS011;67425;52.126;20.638;2023-05-10T14:20:28;2.50;;;1.40;;
55993;SDS011;67425;52.126;20.638;2023-05-10T14:22:53;9.80;;;2.28;;
55993;SDS011;67425;52.126;20.638;2023-05-10T14:25:19;10.60;;;1.67;;
55993;SDS011;67425;52.126;20.638;2023-05-10T14:27:44;7.30;;;2.10;;
55993;SDS011;67425;52.126;20.638;2023-05-10T14:30:10;6.90;;;1.60;;
55993;SDS011;67425;52.126;20.638;2023-05-10T14:32:35;9.77;;;1.73;;
55993;SDS011;67425;52.126;20.638;2023-05-10T14:35:01;5.22;;;2.13;;
55993;SDS011;67425;52.126;20.638;2023-05-10T14:37:27;7.45;;;1.85;;
55993;SDS011;67425;52.126;20.638;2023-05-10T14:39:52;6.18;;;1.40;;
55993;SDS011;67425;52.126;20.638;2023-05-10T14:42:18;7.63;;;1.60;;
55993;SDS011;67425;52.126;20.638;2023-05-10T14:44:44;3.78;;;1.42;;
55993;SDS011;67425;52.126;20.638;2023-05-10T14:47:09;4.60;;;1.33;;
55993;SDS011;67425;52.126;20.638;2023-05-10T14:49:34;9.75;;;1.88;;
55993;SDS011;67425;52.126;20.638;2023-05-10T14:52:00;7.05;;;2.08;;
55993;SDS011;67425;52.126;20.638;2023-05-10T14:54:25;5.95;;;1.40;;
55993;SDS011;67425;52.126;20.638;2023-05-10T14:56:51;5.07;;;1.45;;
55993;SDS011;67425;52.126;20.638;2023-05-10T14:59:16;5.28;;;1.50;;
55993;SDS011;67425;52.126;20.638;2023-05-10T15:01:41;3.92;;;1.27;;
55993;SDS011;67425;52.126;20.638;2023-05-10T15:04:07;8.68;;;1.50;;
55993;SDS011;67425;52.126;20.638;2023-05-10T15:06:34;7.38;;;1.50;;
55993;SDS011;67425;52.126;20.638;2023-05-10T15:09:00;2.05;;;1.77;;
55993;SDS011;67425;52.126;20.638;2023-05-10T15:11:28;7.97;;;1.88;;
55993;SDS011;67425;52.126;20.638;2023-05-10T15:13:54;3.88;;;1.60;;